sensor_id;sensor_type;location;lat;lon;timestamp;pressure;altitude;pressure_sealevel;temperature;humidity
33859;BME280;20156;47.486;12.074;2022-08-16T00:00:05;94091.88;;;17.99;100.00
33859;BME280;20156;47.486;12.074;2022-08-16T00:02:32;94091.25;;;18.07;100.00
33859;BME280;20156;47.486;12.074;2022-08-16T00:04:58;94103.28;;;18.18;100.00
33859;BME280;20156;47.486;12.074;2022-08-16T00:07:23;94122.66;;;18.27;100.00
33859;BME280;20156;47.486;12.074;2022-08-16T00:09:48;94136.94;;;18.21;100.00
33859;BME280;20156;47.486;12.074;2022-08-16T00:12:14;94159.75;;;18.60;100.00
33859;BME280;20156;47.486;12.074;2022-08-16T00:14:39;94205.81;;;18.68;100.00
33859;BME280;20156;47.486;12.074;2022-08-16T00:17:05;94229.63;;;18.52;100.00
33859;BME280;20156;47.486;12.074;2022-08-16T00:19:32;94247.88;;;18.44;100.00
33859;BME280;20156;47.486;12.074;2022-08-16T00:21:58;94228.25;;;18.26;100.00
33859;BME280;20156;47.486;12.074;2022-08-16T00:24:24;94247.69;;;18.35;100.00
33859;BME280;20156;47.486;12.074;2022-08-16T00:26:53;94262.78;;;18.24;100.00
33859;BME280;20156;47.486;12.074;2022-08-16T00:29:19;94272.31;;;18.15;100.00
33859;BME280;20156;47.486;12.074;2022-08-16T00:31:47;94270.03;;;18.03;100.00
33859;BME280;20156;47.486;12.074;2022-08-16T00:34:13;94296.91;;;18.00;100.00
33859;BME280;20156;47.486;12.074;2022-08-16T00:36:39;94310.47;;;18.18;100.00
33859;BME280;20156;47.486;12.074;2022-08-16T00:39:04;94303.19;;;18.44;100.00
33859;BME280;20156;47.486;12.074;2022-08-16T00:41:31;94326.13;;;17.99;100.00
33859;BME280;20156;47.486;12.074;2022-08-16T00:43:59;94315.88;;;17.97;100.00
33859;BME280;20156;47.486;12.074;2022-08-16T00:46:33;94326.63;;;18.01;100.00
33859;BME280;20156;47.486;12.074;2022-08-16T00:49:02;94343.59;;;17.74;100.00
33859;BME280;20156;47.486;12.074;2022-08-16T00:51:28;94341.41;;;17.92;100.00
33859;BME280;20156;47.486;12.074;2022-08-16T00:53:54;94346.19;;;17.80;100.00
33859;BME280;20156;47.486;12.074;2022-08-16T00:56:26;94358.00;;;17.87;100.00
33859;BME280;20156;47.486;12.074;2022-08-16T00:58:52;94363.53;;;17.91;100.00
33859;BME280;20156;47.486;12.074;2022-08-16T01:01:18;94377.72;;;17.95;100.00
33859;BME280;20156;47.486;12.074;2022-08-16T01:03:46;94374.56;;;17.98;100.00
33859;BME280;20156;47.486;12.074;2022-08-16T01:06:13;94388.25;;;18.00;100.00
33859;BME280;20156;47.486;12.074;2022-08-16T01:08:41;94392.53;;;17.70;100.00
33859;BME280;20156;47.486;12.074;2022-08-16T01:11:07;94399.91;;;17.53;100.00
33859;BME280;20156;47.486;12.074;2022-08-16T01:13:34;94400.16;;;17.62;100.00
33859;BME280;20156;47.486;12.074;2022-08-16T01:16:08;94397.75;;;17.86;100.00
33859;BME280;20156;47.486;12.074;2022-08-16T01:18:43;94424.31;;;17.99;100.00
33859;BME280;20156;47.486;12.074;2022-08-16T01:26:41;94432.44;;;18.03;100.00
33859;BME280;20156;47.486;12.074;2022-08-16T01:29:12;94440.63;;;18.01;100.00
33859;BME280;20156;47.486;12.074;2022-08-16T01:31:39;94454.09;;;17.74;100.00
33859;BME280;20156;47.486;12.074;2022-08-16T01:34:04;94449.22;;;18.22;100.00
33859;BME280;20156;47.486;12.074;2022-08-16T01:36:30;94480.28;;;18.25;100.00
33859;BME280;20156;47.486;12.074;2022-08-16T01:38:56;94495.00;;;18.37;100.00
33859;BME280;20156;47.486;12.074;2022-08-16T01:41:24;94498.00;;;17.99;100.00
33859;BME280;20156;47.486;12.074;2022-08-16T01:43:51;94490.41;;;17.83;100.00
33859;BME280;20156;47.486;12.074;2022-08-16T01:46:58;94487.75;;;17.78;100.00
33859;BME280;20156;47.486;12.074;2022-08-16T01:51:52;94512.75;;;17.60;100.00
33859;BME280;20156;47.486;12.074;2022-08-16T01:54:18;94509.88;;;17.51;100.00
33859;BME280;20156;47.486;12.074;2022-08-16T01:56:44;94508.28;;;17.60;100.00
33859;BME280;20156;47.486;12.074;2022-08-16T01:59:12;94512.25;;;17.53;100.00
33859;BME280;20156;47.486;12.074;2022-08-16T02:01:38;94506.72;;;17.49;100.00
33859;BME280;20156;47.486;12.074;2022-08-16T02:04:03;94501.97;;;17.56;100.00
33859;BME280;20156;47.486;12.074;2022-08-16T02:06:30;94504.34;;;17.73;100.00
33859;BME280;20156;47.486;12.074;2022-08-16T02:08:56;94497.00;;;17.70;100.00
33859;BME280;20156;47.486;12.074;2022-08-16T02:11:23;94500.41;;;17.70;100.00
33859;BME280;20156;47.486;12.074;2022-08-16T02:13:49;94503.31;;;17.64;100.00
33859;BME280;20156;47.486;12.074;2022-08-16T02:16:15;94500.66;;;17.54;100.00
33859;BME280;20156;47.486;12.074;2022-08-16T02:18:41;94501.97;;;17.61;100.00
33859;BME280;20156;47.486;12.074;2022-08-16T02:21:08;94515.69;;;17.68;100.00
33859;BME280;20156;47.486;12.074;2022-08-16T02:23:36;94520.16;;;17.68;100.00
33859;BME280;20156;47.486;12.074;2022-08-16T02:26:03;94527.00;;;17.69;100.00
33859;BME280;20156;47.486;12.074;2022-08-16T02:28:29;94543.56;;;17.69;100.00
33859;BME280;20156;47.486;12.074;2022-08-16T02:30:56;94552.19;;;17.29;100.00
33859;BME280;20156;47.486;12.074;2022-08-16T02:33:24;94556.97;;;17.48;100.00
33859;BME280;20156;47.486;12.074;2022-08-16T02:35:50;94560.09;;;17.44;100.00
33859;BME280;20156;47.486;12.074;2022-08-16T02:38:16;94565.63;;;17.48;100.00
33859;BME280;20156;47.486;12.074;2022-08-16T02:40:41;94567.72;;;17.41;100.00
33859;BME280;20156;47.486;12.074;2022-08-16T02:43:06;94566.13;;;17.30;100.00
33859;BME280;20156;47.486;12.074;2022-08-16T02:45:32;94566.41;;;17.33;100.00
33859;BME280;20156;47.486;12.074;2022-08-16T02:47:57;94579.50;;;17.08;100.00
33859;BME280;20156;47.486;12.074;2022-08-16T02:50:24;94572.16;;;17.15;100.00
33859;BME280;20156;47.486;12.074;2022-08-16T02:52:50;94579.75;;;17.06;100.00
33859;BME280;20156;47.486;12.074;2022-08-16T02:55:16;94584.22;;;17.11;100.00
33859;BME280;20156;47.486;12.074;2022-08-16T02:57:43;94587.91;;;17.10;100.00
33859;BME280;20156;47.486;12.074;2022-08-16T03:00:11;94592.38;;;17.09;100.00
33859;BME280;20156;47.486;12.074;2022-08-16T03:02:37;94608.34;;;16.93;100.00
33859;BME280;20156;47.486;12.074;2022-08-16T03:05:05;94599.16;;;16.95;100.00
33859;BME280;20156;47.486;12.074;2022-08-16T03:07:31;94598.09;;;16.86;100.00
33859;BME280;20156;47.486;12.074;2022-08-16T03:09:56;94591.47;;;16.78;100.00
33859;BME280;20156;47.486;12.074;2022-08-16T03:12:22;94591.47;;;16.73;100.00
33859;BME280;20156;47.486;12.074;2022-08-16T03:14:48;94590.69;;;16.73;100.00
33859;BME280;20156;47.486;12.074;2022-08-16T03:17:14;94589.09;;;16.72;100.00
33859;BME280;20156;47.486;12.074;2022-08-16T03:19:39;94580.97;;;16.73;100.00
33859;BME280;20156;47.486;12.074;2022-08-16T03:22:05;94579.66;;;16.76;100.00
33859;BME280;20156;47.486;12.074;2022-08-16T03:24:30;94582.06;;;16.82;100.00
33859;BME280;20156;47.486;12.074;2022-08-16T03:27:00;94593.06;;;16.79;100.00
33859;BME280;20156;47.486;12.074;2022-08-16T03:29:27;94592.72;;;16.66;100.00
33859;BME280;20156;47.486;12.074;2022-08-16T03:31:53;94592.69;;;16.61;100.00
33859;BME280;20156;47.486;12.074;2022-08-16T03:34:19;94595.13;;;16.72;100.00
33859;BME280;20156;47.486;12.074;2022-08-16T03:36:45;94596.19;;;16.71;100.00
33859;BME280;20156;47.486;12.074;2022-08-16T03:39:11;94603.00;;;16.67;100.00
33859;BME280;20156;47.486;12.074;2022-08-16T03:41:37;94604.28;;;16.65;100.00
33859;BME280;20156;47.486;12.074;2022-08-16T03:44:02;94594.56;;;16.65;100.00
33859;BME280;20156;47.486;12.074;2022-08-16T03:46:32;94599.81;;;16.65;100.00
33859;BME280;20156;47.486;12.074;2022-08-16T03:48:57;94606.16;;;16.69;100.00
33859;BME280;20156;47.486;12.074;2022-08-16T03:51:22;94609.59;;;16.70;100.00
33859;BME280;20156;47.486;12.074;2022-08-16T03:53:48;94606.69;;;16.71;100.00
33859;BME280;20156;47.486;12.074;2022-08-16T03:56:13;94610.91;;;16.72;100.00
33859;BME280;20156;47.486;12.074;2022-08-16T03:58:39;94617.53;;;16.80;100.00
33859;BME280;20156;47.486;12.074;2022-08-16T04:01:04;94623.59;;;16.96;100.00
33859;BME280;20156;47.486;12.074;2022-08-16T04:03:30;94635.16;;;16.90;100.00
33859;BME280;20156;47.486;12.074;2022-08-16T04:05:56;94648.13;;;17.17;100.00
33859;BME280;20156;47.486;12.074;2022-08-16T04:08:22;94652.03;;;17.09;100.00
33859;BME280;20156;47.486;12.074;2022-08-16T04:10:49;94656.78;;;17.12;100.00
33859;BME280;20156;47.486;12.074;2022-08-16T04:13:15;94664.22;;;16.73;100.00
33859;BME280;20156;47.486;12.074;2022-08-16T04:15:40;94665.81;;;16.79;100.00
33859;BME280;20156;47.486;12.074;2022-08-16T04:18:06;94661.34;;;16.74;100.00
33859;BME280;20156;47.486;12.074;2022-08-16T04:20:32;94661.69;;;16.93;100.00
33859;BME280;20156;47.486;12.074;2022-08-16T04:22:58;94664.09;;;17.00;100.00
33859;BME280;20156;47.486;12.074;2022-08-16T04:25:24;94672.50;;;16.97;100.00
33859;BME280;20156;47.486;12.074;2022-08-16T04:27:50;94670.44;;;17.09;100.00
33859;BME280;20156;47.486;12.074;2022-08-16T04:30:18;94676.41;;;16.94;100.00
33859;BME280;20156;47.486;12.074;2022-08-16T04:32:44;94675.94;;;16.97;100.00
33859;BME280;20156;47.486;12.074;2022-08-16T04:35:13;94679.28;;;16.88;100.00
33859;BME280;20156;47.486;12.074;2022-08-16T04:37:47;94681.53;;;17.21;100.00
33859;BME280;20156;47.486;12.074;2022-08-16T04:40:14;94689.38;;;17.11;100.00
33859;BME280;20156;47.486;12.074;2022-08-16T04:42:40;94696.88;;;16.87;100.00
33859;BME280;20156;47.486;12.074;2022-08-16T04:45:10;94699.41;;;17.14;100.00
33859;BME280;20156;47.486;12.074;2022-08-16T04:47:38;94699.13;;;17.16;100.00
33859;BME280;20156;47.486;12.074;2022-08-16T04:50:16;94708.88;;;17.15;100.00
33859;BME280;20156;47.486;12.074;2022-08-16T04:52:46;94718.06;;;17.18;100.00
33859;BME280;20156;47.486;12.074;2022-08-16T04:55:15;94717.03;;;17.29;100.00
33859;BME280;20156;47.486;12.074;2022-08-16T04:57:42;94715.56;;;17.53;100.00
33859;BME280;20156;47.486;12.074;2022-08-16T05:00:11;94735.03;;;17.47;100.00
33859;BME280;20156;47.486;12.074;2022-08-16T05:02:39;94734.25;;;17.57;100.00
33859;BME280;20156;47.486;12.074;2022-08-16T05:05:05;94743.16;;;17.45;100.00
33859;BME280;20156;47.486;12.074;2022-08-16T05:07:31;94763.38;;;16.88;100.00
33859;BME280;20156;47.486;12.074;2022-08-16T05:09:56;94743.28;;;17.13;100.00
33859;BME280;20156;47.486;12.074;2022-08-16T05:12:21;94741.00;;;17.32;100.00
33859;BME280;20156;47.486;12.074;2022-08-16T05:14:47;94747.59;;;17.35;100.00
33859;BME280;20156;47.486;12.074;2022-08-16T05:17:12;94764.25;;;17.56;100.00
33859;BME280;20156;47.486;12.074;2022-08-16T05:19:38;94767.38;;;17.53;100.00
33859;BME280;20156;47.486;12.074;2022-08-16T05:22:04;94758.19;;;17.55;100.00
33859;BME280;20156;47.486;12.074;2022-08-16T05:24:29;94760.91;;;17.76;100.00
33859;BME280;20156;47.486;12.074;2022-08-16T05:26:54;94778.56;;;17.28;100.00
33859;BME280;20156;47.486;12.074;2022-08-16T05:29:20;94783.16;;;17.00;100.00
33859;BME280;20156;47.486;12.074;2022-08-16T05:31:45;94773.53;;;16.79;100.00
33859;BME280;20156;47.486;12.074;2022-08-16T05:34:10;94774.66;;;16.83;100.00
33859;BME280;20156;47.486;12.074;2022-08-16T05:36:36;94767.31;;;17.37;100.00
33859;BME280;20156;47.486;12.074;2022-08-16T05:39:04;94783.34;;;17.36;100.00
33859;BME280;20156;47.486;12.074;2022-08-16T05:41:30;94784.63;;;17.28;100.00
33859;BME280;20156;47.486;12.074;2022-08-16T05:43:55;94791.97;;;17.21;100.00
33859;BME280;20156;47.486;12.074;2022-08-16T05:46:24;94789.66;;;17.35;100.00
33859;BME280;20156;47.486;12.074;2022-08-16T05:48:50;94791.72;;;17.28;100.00
33859;BME280;20156;47.486;12.074;2022-08-16T05:51:15;94792.66;;;16.69;100.00
33859;BME280;20156;47.486;12.074;2022-08-16T05:53:41;94786.63;;;17.11;100.00
33859;BME280;20156;47.486;12.074;2022-08-16T05:56:06;94789.47;;;17.52;100.00
33859;BME280;20156;47.486;12.074;2022-08-16T05:58:32;94798.44;;;17.56;100.00
33859;BME280;20156;47.486;12.074;2022-08-16T06:00:57;94802.13;;;17.60;100.00
33859;BME280;20156;47.486;12.074;2022-08-16T06:03:22;94815.25;;;17.50;100.00
33859;BME280;20156;47.486;12.074;2022-08-16T06:05:48;94818.84;;;17.33;100.00
33859;BME280;20156;47.486;12.074;2022-08-16T06:08:14;94819.00;;;17.17;100.00
33859;BME280;20156;47.486;12.074;2022-08-16T06:10:39;94814.91;;;17.36;100.00
33859;BME280;20156;47.486;12.074;2022-08-16T06:13:05;94823.81;;;17.30;100.00
33859;BME280;20156;47.486;12.074;2022-08-16T06:15:30;94817.47;;;17.21;100.00
33859;BME280;20156;47.486;12.074;2022-08-16T06:17:55;94812.91;;;17.58;100.00
33859;BME280;20156;47.486;12.074;2022-08-16T06:20:25;94818.44;;;17.57;100.00
33859;BME280;20156;47.486;12.074;2022-08-16T06:22:55;94819.38;;;17.83;100.00
33859;BME280;20156;47.486;12.074;2022-08-16T06:25:22;94816.22;;;17.91;100.00
33859;BME280;20156;47.486;12.074;2022-08-16T06:27:47;94826.47;;;17.87;100.00
33859;BME280;20156;47.486;12.074;2022-08-16T06:30:13;94824.97;;;18.01;100.00
33859;BME280;20156;47.486;12.074;2022-08-16T06:32:39;94842.22;;;17.72;100.00
33859;BME280;20156;47.486;12.074;2022-08-16T06:35:06;94837.63;;;17.52;100.00
33859;BME280;20156;47.486;12.074;2022-08-16T06:37:31;94836.31;;;17.55;100.00
33859;BME280;20156;47.486;12.074;2022-08-16T06:39:57;94833.69;;;18.17;100.00
33859;BME280;20156;47.486;12.074;2022-08-16T06:42:22;94838.63;;;17.98;100.00
33859;BME280;20156;47.486;12.074;2022-08-16T06:44:48;94838.66;;;18.14;100.00
33859;BME280;20156;47.486;12.074;2022-08-16T06:47:14;94844.75;;;18.24;100.00
33859;BME280;20156;47.486;12.074;2022-08-16T06:49:39;94847.03;;;17.95;100.00
33859;BME280;20156;47.486;12.074;2022-08-16T06:52:05;94838.19;;;18.37;100.00
33859;BME280;20156;47.486;12.074;2022-08-16T06:54:31;94849.31;;;18.80;100.00
33859;BME280;20156;47.486;12.074;2022-08-16T06:56:58;94853.03;;;18.69;100.00
33859;BME280;20156;47.486;12.074;2022-08-16T06:59:23;94849.88;;;18.72;100.00
33859;BME280;20156;47.486;12.074;2022-08-16T07:01:49;94848.28;;;18.91;100.00
33859;BME280;20156;47.486;12.074;2022-08-16T07:04:15;94853.56;;;18.71;100.00
33859;BME280;20156;47.486;12.074;2022-08-16T07:06:41;94839.31;;;18.97;100.00
33859;BME280;20156;47.486;12.074;2022-08-16T07:09:06;94831.69;;;19.01;100.00
33859;BME280;20156;47.486;12.074;2022-08-16T07:11:32;94837.44;;;19.13;100.00
33859;BME280;20156;47.486;12.074;2022-08-16T07:13:57;94836.94;;;19.21;100.00
33859;BME280;20156;47.486;12.074;2022-08-16T07:16:24;94840.84;;;19.39;100.00
33859;BME280;20156;47.486;12.074;2022-08-16T07:18:49;94846.38;;;19.42;100.00
33859;BME280;20156;47.486;12.074;2022-08-16T07:21:16;94850.34;;;19.30;100.00
33859;BME280;20156;47.486;12.074;2022-08-16T07:23:42;94849.59;;;19.19;100.00
33859;BME280;20156;47.486;12.074;2022-08-16T07:26:16;94848.25;;;19.21;100.00
33859;BME280;20156;47.486;12.074;2022-08-16T07:28:42;94838.50;;;19.27;100.00
33859;BME280;20156;47.486;12.074;2022-08-16T07:31:09;94850.66;;;19.18;100.00
33859;BME280;20156;47.486;12.074;2022-08-16T07:33:34;94854.53;;;19.46;100.00
33859;BME280;20156;47.486;12.074;2022-08-16T07:36:03;94862.25;;;19.32;100.00
33859;BME280;20156;47.486;12.074;2022-08-16T07:38:28;94862.78;;;19.19;100.00
33859;BME280;20156;47.486;12.074;2022-08-16T07:40:54;94850.84;;;19.52;100.00
33859;BME280;20156;47.486;12.074;2022-08-16T07:43:21;94844.44;;;19.78;100.00
33859;BME280;20156;47.486;12.074;2022-08-16T07:45:47;94864.25;;;19.76;100.00
33859;BME280;20156;47.486;12.074;2022-08-16T07:48:13;94869.84;;;20.34;100.00
33859;BME280;20156;47.486;12.074;2022-08-16T07:50:40;94878.81;;;20.38;100.00
33859;BME280;20156;47.486;12.074;2022-08-16T07:53:05;94882.72;;;20.51;100.00
33859;BME280;20156;47.486;12.074;2022-08-16T07:55:31;94876.75;;;20.74;100.00
33859;BME280;20156;47.486;12.074;2022-08-16T07:57:56;94877.22;;;20.81;100.00
33859;BME280;20156;47.486;12.074;2022-08-16T08:00:22;94883.06;;;21.12;100.00
33859;BME280;20156;47.486;12.074;2022-08-16T08:02:47;94886.06;;;21.40;100.00
33859;BME280;20156;47.486;12.074;2022-08-16T08:05:13;94880.03;;;21.34;100.00
33859;BME280;20156;47.486;12.074;2022-08-16T08:07:39;94886.44;;;21.23;100.00
33859;BME280;20156;47.486;12.074;2022-08-16T08:10:05;94886.84;;;21.40;100.00
33859;BME280;20156;47.486;12.074;2022-08-16T08:12:31;94871.25;;;21.62;100.00
33859;BME280;20156;47.486;12.074;2022-08-16T08:14:57;94880.97;;;21.72;100.00
33859;BME280;20156;47.486;12.074;2022-08-16T08:17:23;94904.69;;;21.82;100.00
33859;BME280;20156;47.486;12.074;2022-08-16T08:19:48;94906.53;;;21.82;100.00
33859;BME280;20156;47.486;12.074;2022-08-16T08:22:14;94889.63;;;21.54;100.00
33859;BME280;20156;47.486;12.074;2022-08-16T08:24:39;94892.66;;;21.66;100.00
33859;BME280;20156;47.486;12.074;2022-08-16T08:27:06;94888.88;;;22.01;100.00
33859;BME280;20156;47.486;12.074;2022-08-16T08:29:33;94905.66;;;22.15;100.00
33859;BME280;20156;47.486;12.074;2022-08-16T08:31:59;94917.59;;;22.18;100.00
33859;BME280;20156;47.486;12.074;2022-08-16T08:34:26;94912.78;;;22.20;100.00
33859;BME280;20156;47.486;12.074;2022-08-16T08:36:51;94920.81;;;22.34;100.00
33859;BME280;20156;47.486;12.074;2022-08-16T08:39:17;94919.81;;;22.30;100.00
33859;BME280;20156;47.486;12.074;2022-08-16T08:41:43;94916.91;;;22.50;100.00
33859;BME280;20156;47.486;12.074;2022-08-16T08:44:10;94912.84;;;22.76;100.00
33859;BME280;20156;47.486;12.074;2022-08-16T08:46:36;94914.06;;;22.84;100.00
33859;BME280;20156;47.486;12.074;2022-08-16T08:49:02;94917.56;;;22.79;100.00
33859;BME280;20156;47.486;12.074;2022-08-16T08:51:27;94913.56;;;23.01;100.00
33859;BME280;20156;47.486;12.074;2022-08-16T08:53:53;94911.63;;;23.06;100.00
33859;BME280;20156;47.486;12.074;2022-08-16T08:56:18;94915.69;;;23.18;100.00
33859;BME280;20156;47.486;12.074;2022-08-16T08:58:44;94910.03;;;23.24;100.00
33859;BME280;20156;47.486;12.074;2022-08-16T09:01:10;94916.47;;;23.37;100.00
33859;BME280;20156;47.486;12.074;2022-08-16T09:03:37;94913.44;;;23.44;100.00
33859;BME280;20156;47.486;12.074;2022-08-16T09:06:04;94916.25;;;23.66;100.00
33859;BME280;20156;47.486;12.074;2022-08-16T09:08:30;94909.38;;;23.79;100.00
33859;BME280;20156;47.486;12.074;2022-08-16T09:10:57;94917.47;;;23.74;100.00
33859;BME280;20156;47.486;12.074;2022-08-16T09:13:24;94918.66;;;23.95;100.00
33859;BME280;20156;47.486;12.074;2022-08-16T09:15:51;94916.97;;;23.99;100.00
33859;BME280;20156;47.486;12.074;2022-08-16T09:18:18;94931.94;;;23.95;100.00
33859;BME280;20156;47.486;12.074;2022-08-16T09:20:44;94922.13;;;24.23;100.00
33859;BME280;20156;47.486;12.074;2022-08-16T09:23:11;94936.50;;;24.08;100.00
33859;BME280;20156;47.486;12.074;2022-08-16T09:25:37;94938.88;;;23.63;100.00
33859;BME280;20156;47.486;12.074;2022-08-16T09:28:04;94960.88;;;23.96;100.00
33859;BME280;20156;47.486;12.074;2022-08-16T09:30:29;94961.09;;;23.86;100.00
33859;BME280;20156;47.486;12.074;2022-08-16T09:32:55;94958.38;;;23.40;100.00
33859;BME280;20156;47.486;12.074;2022-08-16T09:35:21;94942.97;;;23.88;100.00
33859;BME280;20156;47.486;12.074;2022-08-16T09:37:46;94921.41;;;24.72;100.00
33859;BME280;20156;47.486;12.074;2022-08-16T09:40:12;94915.22;;;24.85;100.00
33859;BME280;20156;47.486;12.074;2022-08-16T09:42:38;94927.03;;;25.07;100.00
33859;BME280;20156;47.486;12.074;2022-08-16T09:45:05;94935.56;;;25.17;100.00
33859;BME280;20156;47.486;12.074;2022-08-16T09:47:33;94941.13;;;25.07;100.00
33859;BME280;20156;47.486;12.074;2022-08-16T09:50:03;94926.19;;;25.20;100.00
33859;BME280;20156;47.486;12.074;2022-08-16T09:52:29;94936.47;;;25.35;100.00
33859;BME280;20156;47.486;12.074;2022-08-16T09:54:54;94929.03;;;25.46;100.00
33859;BME280;20156;47.486;12.074;2022-08-16T09:57:20;94935.75;;;25.43;100.00
33859;BME280;20156;47.486;12.074;2022-08-16T09:59:45;94919.03;;;25.52;100.00
33859;BME280;20156;47.486;12.074;2022-08-16T10:02:10;94919.94;;;25.69;100.00
33859;BME280;20156;47.486;12.074;2022-08-16T10:04:36;94918.88;;;25.70;100.00
33859;BME280;20156;47.486;12.074;2022-08-16T10:07:03;94913.47;;;25.39;100.00
33859;BME280;20156;47.486;12.074;2022-08-16T10:09:29;94920.25;;;25.68;100.00
33859;BME280;20156;47.486;12.074;2022-08-16T10:11:55;94903.66;;;26.11;100.00
33859;BME280;20156;47.486;12.074;2022-08-16T10:14:38;94908.41;;;25.83;100.00
33859;BME280;20156;47.486;12.074;2022-08-16T10:17:04;94909.47;;;25.50;100.00
33859;BME280;20156;47.486;12.074;2022-08-16T10:19:31;94897.25;;;26.20;100.00
33859;BME280;20156;47.486;12.074;2022-08-16T10:21:57;94896.78;;;26.18;100.00
33859;BME280;20156;47.486;12.074;2022-08-16T10:24:23;94897.06;;;26.08;100.00
33859;BME280;20156;47.486;12.074;2022-08-16T10:26:48;94899.31;;;25.84;100.00
33859;BME280;20156;47.486;12.074;2022-08-16T10:29:14;94883.38;;;26.49;100.00
33859;BME280;20156;47.486;12.074;2022-08-16T10:31:41;94883.09;;;26.77;100.00
33859;BME280;20156;47.486;12.074;2022-08-16T10:34:07;94894.22;;;26.61;100.00
33859;BME280;20156;47.486;12.074;2022-08-16T10:36:32;94889.81;;;26.48;100.00
33859;BME280;20156;47.486;12.074;2022-08-16T10:38:58;94883.97;;;25.58;100.00
33859;BME280;20156;47.486;12.074;2022-08-16T10:41:23;94879.06;;;26.22;100.00
33859;BME280;20156;47.486;12.074;2022-08-16T10:43:49;94886.50;;;25.63;100.00
33859;BME280;20156;47.486;12.074;2022-08-16T10:46:16;94883.91;;;25.72;100.00
33859;BME280;20156;47.486;12.074;2022-08-16T10:48:43;94874.72;;;25.87;100.00
33859;BME280;20156;47.486;12.074;2022-08-16T10:51:09;94878.28;;;26.30;100.00
33859;BME280;20156;47.486;12.074;2022-08-16T10:53:35;94858.44;;;26.80;100.00
33859;BME280;20156;47.486;12.074;2022-08-16T10:56:04;94869.13;;;26.88;100.00
33859;BME280;20156;47.486;12.074;2022-08-16T10:58:30;94866.56;;;27.35;100.00
33859;BME280;20156;47.486;12.074;2022-08-16T11:00:57;94860.50;;;27.81;100.00
33859;BME280;20156;47.486;12.074;2022-08-16T11:03:23;94864.94;;;27.69;100.00
33859;BME280;20156;47.486;12.074;2022-08-16T11:05:48;94854.47;;;27.93;100.00
33859;BME280;20156;47.486;12.074;2022-08-16T11:08:14;94849.97;;;27.76;100.00
33859;BME280;20156;47.486;12.074;2022-08-16T11:10:44;94849.44;;;27.92;100.00
33859;BME280;20156;47.486;12.074;2022-08-16T11:13:15;94854.72;;;28.09;100.00
33859;BME280;20156;47.486;12.074;2022-08-16T11:15:42;94858.69;;;27.56;100.00
33859;BME280;20156;47.486;12.074;2022-08-16T11:18:10;94853.78;;;27.67;100.00
33859;BME280;20156;47.486;12.074;2022-08-16T11:20:36;94846.16;;;28.15;100.00
33859;BME280;20156;47.486;12.074;2022-08-16T11:23:03;94845.78;;;28.55;100.00
33859;BME280;20156;47.486;12.074;2022-08-16T11:25:30;94854.75;;;28.80;100.00
33859;BME280;20156;47.486;12.074;2022-08-16T11:27:56;94839.72;;;28.67;100.00
33859;BME280;20156;47.486;12.074;2022-08-16T11:30:23;94839.50;;;28.72;100.00
33859;BME280;20156;47.486;12.074;2022-08-16T11:32:49;94829.50;;;29.02;100.00
33859;BME280;20156;47.486;12.074;2022-08-16T11:35:23;94827.50;;;28.78;100.00
33859;BME280;20156;47.486;12.074;2022-08-16T11:37:53;94824.09;;;29.11;100.00
33859;BME280;20156;47.486;12.074;2022-08-16T11:40:19;94822.19;;;29.11;100.00
33859;BME280;20156;47.486;12.074;2022-08-16T11:42:44;94829.00;;;29.21;100.00
33859;BME280;20156;47.486;12.074;2022-08-16T11:45:10;94827.78;;;29.18;100.00
33859;BME280;20156;47.486;12.074;2022-08-16T11:47:36;94813.19;;;29.28;100.00
33859;BME280;20156;47.486;12.074;2022-08-16T11:50:04;94830.16;;;29.32;100.00
33859;BME280;20156;47.486;12.074;2022-08-16T11:52:32;94832.44;;;29.09;100.00
33859;BME280;20156;47.486;12.074;2022-08-16T11:54:59;94822.44;;;29.63;100.00
33859;BME280;20156;47.486;12.074;2022-08-16T11:57:24;94834.81;;;29.56;100.00
33859;BME280;20156;47.486;12.074;2022-08-16T11:59:50;94826.25;;;29.99;100.00
33859;BME280;20156;47.486;12.074;2022-08-16T12:02:15;94819.00;;;30.12;100.00
33859;BME280;20156;47.486;12.074;2022-08-16T12:04:40;94825.91;;;30.01;100.00
33859;BME280;20156;47.486;12.074;2022-08-16T12:07:10;94829.50;;;30.05;100.00
33859;BME280;20156;47.486;12.074;2022-08-16T12:09:35;94831.97;;;29.73;100.00
33859;BME280;20156;47.486;12.074;2022-08-16T12:12:01;94822.44;;;30.00;100.00
33859;BME280;20156;47.486;12.074;2022-08-16T12:14:27;94832.97;;;30.17;100.00
33859;BME280;20156;47.486;12.074;2022-08-16T12:16:53;94833.22;;;30.24;98.11
33859;BME280;20156;47.486;12.074;2022-08-16T12:19:20;94821.09;;;30.43;100.00
33859;BME280;20156;47.486;12.074;2022-08-16T12:21:46;94816.09;;;30.17;100.00
33859;BME280;20156;47.486;12.074;2022-08-16T12:24:12;94832.47;;;30.52;93.96
33859;BME280;20156;47.486;12.074;2022-08-16T12:26:37;94829.44;;;30.53;99.56
33859;BME280;20156;47.486;12.074;2022-08-16T12:29:03;94823.00;;;30.42;100.00
33859;BME280;20156;47.486;12.074;2022-08-16T12:31:28;94827.66;;;30.70;96.54
33859;BME280;20156;47.486;12.074;2022-08-16T12:33:54;94821.84;;;30.55;100.00
33859;BME280;20156;47.486;12.074;2022-08-16T12:36:20;94821.06;;;30.67;100.00
33859;BME280;20156;47.486;12.074;2022-08-16T12:38:45;94817.13;;;30.77;100.00
33859;BME280;20156;47.486;12.074;2022-08-16T12:41:12;94817.50;;;30.91;100.00
33859;BME280;20156;47.486;12.074;2022-08-16T12:43:38;94817.03;;;31.45;100.00